sensor_id;sensor_type;location;lat;lon;timestamp;P1;durP1;ratioP1;P2;durP2;ratioP2
6095;SDS011;25081;42.698;23.298;2022-12-11T00:01:15;33.10;;;23.23;;
6095;SDS011;25081;42.698;23.298;2022-12-11T00:03:23;33.30;;;22.80;;
6095;SDS011;25081;42.698;23.298;2022-12-11T00:05:33;40.23;;;26.37;;
6095;SDS011;25081;42.698;23.298;2022-12-11T00:07:44;39.03;;;24.90;;
6095;SDS011;25081;42.698;23.298;2022-12-11T00:09:54;52.30;;;32.33;;
6095;SDS011;25081;42.698;23.298;2022-12-11T00:12:05;39.60;;;29.87;;
6095;SDS011;25081;42.698;23.298;2022-12-11T00:14:16;39.90;;;27.47;;
6095;SDS011;25081;42.698;23.298;2022-12-11T00:16:27;48.80;;;30.47;;
6095;SDS011;25081;42.698;23.298;2022-12-11T00:18:37;50.90;;;31.80;;
6095;SDS011;25081;42.698;23.298;2022-12-11T00:20:47;43.90;;;30.07;;
6095;SDS011;25081;42.698;23.298;2022-12-11T00:22:58;41.60;;;28.20;;
6095;SDS011;25081;42.698;23.298;2022-12-11T00:25:09;39.70;;;26.83;;
6095;SDS011;25081;42.698;23.298;2022-12-11T00:27:19;40.47;;;29.17;;
6095;SDS011;25081;42.698;23.298;2022-12-11T00:29:30;43.90;;;28.60;;
6095;SDS011;25081;42.698;23.298;2022-12-11T00:31:40;37.53;;;26.67;;
6095;SDS011;25081;42.698;23.298;2022-12-11T00:33:51;41.23;;;25.50;;
6095;SDS011;25081;42.698;23.298;2022-12-11T00:36:01;28.37;;;19.23;;
6095;SDS011;25081;42.698;23.298;2022-12-11T00:38:13;28.27;;;20.37;;
6095;SDS011;25081;42.698;23.298;2022-12-11T00:40:24;26.57;;;16.30;;
6095;SDS011;25081;42.698;23.298;2022-12-11T00:42:34;22.00;;;15.90;;
6095;SDS011;25081;42.698;23.298;2022-12-11T00:44:44;23.90;;;15.47;;
6095;SDS011;25081;42.698;23.298;2022-12-11T00:46:55;18.33;;;13.43;;
6095;SDS011;25081;42.698;23.298;2022-12-11T00:49:06;26.17;;;17.90;;
6095;SDS011;25081;42.698;23.298;2022-12-11T00:51:16;23.60;;;17.70;;
6095;SDS011;25081;42.698;23.298;2022-12-11T00:53:27;28.57;;;20.30;;
6095;SDS011;25081;42.698;23.298;2022-12-11T00:55:38;28.40;;;20.10;;
6095;SDS011;25081;42.698;23.298;2022-12-11T00:57:49;35.63;;;20.90;;
6095;SDS011;25081;42.698;23.298;2022-12-11T01:00:00;28.40;;;19.10;;
6095;SDS011;25081;42.698;23.298;2022-12-11T01:02:10;26.17;;;19.37;;
6095;SDS011;25081;42.698;23.298;2022-12-11T01:04:21;26.70;;;19.23;;
6095;SDS011;25081;42.698;23.298;2022-12-11T01:06:31;25.87;;;17.77;;
6095;SDS011;25081;42.698;23.298;2022-12-11T01:08:42;24.43;;;18.70;;
6095;SDS011;25081;42.698;23.298;2022-12-11T01:10:58;24.60;;;16.90;;
6095;SDS011;25081;42.698;23.298;2022-12-11T01:13:12;25.10;;;18.10;;
6095;SDS011;25081;42.698;23.298;2022-12-11T01:15:23;28.03;;;17.90;;
6095;SDS011;25081;42.698;23.298;2022-12-11T01:17:33;29.83;;;19.17;;
6095;SDS011;25081;42.698;23.298;2022-12-11T01:19:44;21.30;;;16.10;;
6095;SDS011;25081;42.698;23.298;2022-12-11T01:21:55;25.93;;;17.07;;
6095;SDS011;25081;42.698;23.298;2022-12-11T01:24:06;27.43;;;16.20;;
6095;SDS011;25081;42.698;23.298;2022-12-11T01:26:17;25.40;;;16.27;;
6095;SDS011;25081;42.698;23.298;2022-12-11T01:28:27;32.13;;;18.17;;
6095;SDS011;25081;42.698;23.298;2022-12-11T01:30:39;28.47;;;18.13;;
6095;SDS011;25081;42.698;23.298;2022-12-11T01:32:49;23.33;;;15.70;;
6095;SDS011;25081;42.698;23.298;2022-12-11T01:35:00;28.03;;;16.63;;
6095;SDS011;25081;42.698;23.298;2022-12-11T01:37:11;24.30;;;13.47;;
6095;SDS011;25081;42.698;23.298;2022-12-11T01:39:22;23.40;;;14.00;;
6095;SDS011;25081;42.698;23.298;2022-12-11T01:41:32;19.57;;;12.27;;
6095;SDS011;25081;42.698;23.298;2022-12-11T01:43:55;20.10;;;12.70;;
6095;SDS011;25081;42.698;23.298;2022-12-11T01:46:09;22.67;;;14.83;;
6095;SDS011;25081;42.698;23.298;2022-12-11T01:48:20;20.77;;;14.97;;
6095;SDS011;25081;42.698;23.298;2022-12-11T01:50:30;21.20;;;14.17;;
6095;SDS011;25081;42.698;23.298;2022-12-11T01:52:41;21.07;;;13.27;;
6095;SDS011;25081;42.698;23.298;2022-12-11T01:54:51;17.03;;;10.70;;
6095;SDS011;25081;42.698;23.298;2022-12-11T01:57:03;18.23;;;10.73;;
6095;SDS011;25081;42.698;23.298;2022-12-11T01:59:13;20.90;;;12.57;;
6095;SDS011;25081;42.698;23.298;2022-12-11T02:01:25;16.03;;;9.70;;
6095;SDS011;25081;42.698;23.298;2022-12-11T02:03:35;10.20;;;6.40;;
6095;SDS011;25081;42.698;23.298;2022-12-11T02:05:45;12.40;;;6.90;;
6095;SDS011;25081;42.698;23.298;2022-12-11T02:07:56;12.83;;;7.70;;
6095;SDS011;25081;42.698;23.298;2022-12-11T02:10:08;7.70;;;5.47;;
6095;SDS011;25081;42.698;23.298;2022-12-11T02:12:20;4.83;;;3.40;;
6095;SDS011;25081;42.698;23.298;2022-12-11T02:14:30;5.13;;;2.87;;
6095;SDS011;25081;42.698;23.298;2022-12-11T02:16:41;14.43;;;5.77;;
6095;SDS011;25081;42.698;23.298;2022-12-11T02:18:53;6.30;;;4.30;;
6095;SDS011;25081;42.698;23.298;2022-12-11T02:21:04;7.73;;;4.97;;
6095;SDS011;25081;42.698;23.298;2022-12-11T02:23:24;7.60;;;5.23;;
6095;SDS011;25081;42.698;23.298;2022-12-11T02:25:43;6.80;;;4.17;;
6095;SDS011;25081;42.698;23.298;2022-12-11T02:27:52;5.20;;;3.10;;
6095;SDS011;25081;42.698;23.298;2022-12-11T02:30:03;6.03;;;3.47;;
6095;SDS011;25081;42.698;23.298;2022-12-11T02:32:13;8.37;;;3.87;;
6095;SDS011;25081;42.698;23.298;2022-12-11T02:34:25;8.47;;;3.80;;
6095;SDS011;25081;42.698;23.298;2022-12-11T02:36:36;7.27;;;4.17;;
6095;SDS011;25081;42.698;23.298;2022-12-11T02:38:47;3.33;;;2.80;;
6095;SDS011;25081;42.698;23.298;2022-12-11T02:40:57;6.43;;;3.50;;
6095;SDS011;25081;42.698;23.298;2022-12-11T02:43:09;5.90;;;3.13;;
6095;SDS011;25081;42.698;23.298;2022-12-11T02:45:18;4.73;;;3.07;;
6095;SDS011;25081;42.698;23.298;2022-12-11T02:47:28;4.00;;;2.93;;
6095;SDS011;25081;42.698;23.298;2022-12-11T02:49:39;5.73;;;3.37;;
6095;SDS011;25081;42.698;23.298;2022-12-11T02:51:50;3.00;;;2.70;;
6095;SDS011;25081;42.698;23.298;2022-12-11T02:54:00;4.73;;;3.00;;
6095;SDS011;25081;42.698;23.298;2022-12-11T02:56:12;4.97;;;3.20;;
6095;SDS011;25081;42.698;23.298;2022-12-11T02:58:22;5.30;;;2.70;;
6095;SDS011;25081;42.698;23.298;2022-12-11T03:00:33;5.10;;;2.93;;
6095;SDS011;25081;42.698;23.298;2022-12-11T03:02:43;6.13;;;2.83;;
6095;SDS011;25081;42.698;23.298;2022-12-11T03:04:53;5.83;;;2.23;;
6095;SDS011;25081;42.698;23.298;2022-12-11T03:07:06;4.70;;;2.33;;
6095;SDS011;25081;42.698;23.298;2022-12-11T03:09:16;4.83;;;2.50;;
6095;SDS011;25081;42.698;23.298;2022-12-11T03:11:26;4.57;;;2.27;;
6095;SDS011;25081;42.698;23.298;2022-12-11T03:13:37;3.60;;;2.30;;
6095;SDS011;25081;42.698;23.298;2022-12-11T03:15:49;3.20;;;2.30;;
6095;SDS011;25081;42.698;23.298;2022-12-11T03:18:00;3.80;;;2.00;;
6095;SDS011;25081;42.698;23.298;2022-12-11T03:20:11;3.47;;;2.33;;
6095;SDS011;25081;42.698;23.298;2022-12-11T03:22:21;4.47;;;2.33;;
6095;SDS011;25081;42.698;23.298;2022-12-11T03:24:33;3.37;;;2.03;;
6095;SDS011;25081;42.698;23.298;2022-12-11T03:26:43;5.10;;;2.47;;
6095;SDS011;25081;42.698;23.298;2022-12-11T03:28:54;4.23;;;2.67;;
6095;SDS011;25081;42.698;23.298;2022-12-11T03:31:05;6.40;;;2.97;;
6095;SDS011;25081;42.698;23.298;2022-12-11T03:33:15;4.67;;;2.10;;
6095;SDS011;25081;42.698;23.298;2022-12-11T03:35:26;2.60;;;1.43;;
6095;SDS011;25081;42.698;23.298;2022-12-11T03:37:36;2.23;;;1.43;;
6095;SDS011;25081;42.698;23.298;2022-12-11T03:39:49;3.73;;;1.40;;
6095;SDS011;25081;42.698;23.298;2022-12-11T03:41:56;2.90;;;1.50;;
6095;SDS011;25081;42.698;23.298;2022-12-11T03:44:07;2.80;;;1.53;;
6095;SDS011;25081;42.698;23.298;2022-12-11T03:46:17;4.00;;;1.90;;
6095;SDS011;25081;42.698;23.298;2022-12-11T03:48:29;2.33;;;1.30;;
6095;SDS011;25081;42.698;23.298;2022-12-11T03:50:39;3.97;;;3.00;;
6095;SDS011;25081;42.698;23.298;2022-12-11T03:52:49;2.30;;;1.50;;
6095;SDS011;25081;42.698;23.298;2022-12-11T03:55:00;3.00;;;1.50;;
6095;SDS011;25081;42.698;23.298;2022-12-11T03:57:11;2.70;;;1.63;;
6095;SDS011;25081;42.698;23.298;2022-12-11T03:59:21;2.23;;;1.43;;
6095;SDS011;25081;42.698;23.298;2022-12-11T04:01:31;2.33;;;1.50;;
6095;SDS011;25081;42.698;23.298;2022-12-11T04:03:42;3.03;;;1.80;;
6095;SDS011;25081;42.698;23.298;2022-12-11T04:05:53;3.30;;;1.73;;
6095;SDS011;25081;42.698;23.298;2022-12-11T04:08:03;4.43;;;1.50;;
6095;SDS011;25081;42.698;23.298;2022-12-11T04:10:13;3.53;;;1.60;;
6095;SDS011;25081;42.698;23.298;2022-12-11T04:12:24;3.83;;;1.50;;
6095;SDS011;25081;42.698;23.298;2022-12-11T04:14:34;3.03;;;1.80;;
6095;SDS011;25081;42.698;23.298;2022-12-11T04:17:03;3.50;;;2.00;;
6095;SDS011;25081;42.698;23.298;2022-12-11T04:19:13;3.00;;;1.60;;
6095;SDS011;25081;42.698;23.298;2022-12-11T04:21:42;5.67;;;2.80;;
6095;SDS011;25081;42.698;23.298;2022-12-11T04:24:10;3.03;;;2.03;;
6095;SDS011;25081;42.698;23.298;2022-12-11T04:26:23;2.77;;;1.63;;
6095;SDS011;25081;42.698;23.298;2022-12-11T04:28:33;2.97;;;1.60;;
6095;SDS011;25081;42.698;23.298;2022-12-11T04:30:47;5.00;;;1.80;;
6095;SDS011;25081;42.698;23.298;2022-12-11T04:32:57;5.60;;;1.90;;
6095;SDS011;25081;42.698;23.298;2022-12-11T04:35:09;2.77;;;1.40;;
6095;SDS011;25081;42.698;23.298;2022-12-11T04:37:19;7.33;;;1.80;;
6095;SDS011;25081;42.698;23.298;2022-12-11T04:39:29;6.37;;;2.03;;
6095;SDS011;25081;42.698;23.298;2022-12-11T04:41:40;3.13;;;1.97;;
6095;SDS011;25081;42.698;23.298;2022-12-11T04:43:50;3.40;;;2.53;;
6095;SDS011;25081;42.698;23.298;2022-12-11T04:46:02;5.07;;;2.33;;
6095;SDS011;25081;42.698;23.298;2022-12-11T04:48:12;4.30;;;2.20;;
6095;SDS011;25081;42.698;23.298;2022-12-11T04:50:22;3.53;;;1.43;;
6095;SDS011;25081;42.698;23.298;2022-12-11T04:52:33;4.27;;;1.40;;
6095;SDS011;25081;42.698;23.298;2022-12-11T04:54:44;2.67;;;1.27;;
6095;SDS011;25081;42.698;23.298;2022-12-11T04:56:54;1.93;;;1.23;;
6095;SDS011;25081;42.698;23.298;2022-12-11T04:59:05;3.00;;;1.13;;
6095;SDS011;25081;42.698;23.298;2022-12-11T05:01:16;4.53;;;1.90;;
6095;SDS011;25081;42.698;23.298;2022-12-11T05:03:26;3.40;;;1.50;;
6095;SDS011;25081;42.698;23.298;2022-12-11T05:05:36;2.57;;;1.60;;
6095;SDS011;25081;42.698;23.298;2022-12-11T05:07:47;2.57;;;1.30;;
6095;SDS011;25081;42.698;23.298;2022-12-11T05:09:57;2.50;;;1.10;;
6095;SDS011;25081;42.698;23.298;2022-12-11T05:12:08;4.60;;;1.30;;
6095;SDS011;25081;42.698;23.298;2022-12-11T05:14:18;5.40;;;1.50;;
6095;SDS011;25081;42.698;23.298;2022-12-11T05:16:28;2.10;;;1.30;;
6095;SDS011;25081;42.698;23.298;2022-12-11T05:18:39;2.90;;;1.03;;
6095;SDS011;25081;42.698;23.298;2022-12-11T05:20:54;2.87;;;1.40;;
6095;SDS011;25081;42.698;23.298;2022-12-11T05:23:05;3.93;;;1.37;;
6095;SDS011;25081;42.698;23.298;2022-12-11T05:25:15;2.60;;;1.47;;
6095;SDS011;25081;42.698;23.298;2022-12-11T05:27:26;4.00;;;1.97;;
6095;SDS011;25081;42.698;23.298;2022-12-11T05:29:36;4.70;;;2.93;;
6095;SDS011;25081;42.698;23.298;2022-12-11T05:31:47;3.33;;;1.80;;
6095;SDS011;25081;42.698;23.298;2022-12-11T05:33:58;3.03;;;1.63;;
6095;SDS011;25081;42.698;23.298;2022-12-11T05:36:09;3.60;;;1.53;;
6095;SDS011;25081;42.698;23.298;2022-12-11T05:38:19;3.27;;;1.20;;
6095;SDS011;25081;42.698;23.298;2022-12-11T05:40:30;2.27;;;1.60;;
6095;SDS011;25081;42.698;23.298;2022-12-11T05:42:40;1.87;;;1.20;;
6095;SDS011;25081;42.698;23.298;2022-12-11T05:44:51;3.57;;;1.47;;
6095;SDS011;25081;42.698;23.298;2022-12-11T05:47:01;4.80;;;1.90;;
6095;SDS011;25081;42.698;23.298;2022-12-11T05:49:12;3.43;;;1.93;;
6095;SDS011;25081;42.698;23.298;2022-12-11T05:51:22;4.43;;;1.83;;
6095;SDS011;25081;42.698;23.298;2022-12-11T05:53:33;4.30;;;1.60;;
6095;SDS011;25081;42.698;23.298;2022-12-11T05:55:43;5.23;;;2.30;;
6095;SDS011;25081;42.698;23.298;2022-12-11T05:57:54;3.60;;;1.47;;
6095;SDS011;25081;42.698;23.298;2022-12-11T06:00:06;6.40;;;2.03;;
6095;SDS011;25081;42.698;23.298;2022-12-11T06:02:17;3.43;;;1.53;;
6095;SDS011;25081;42.698;23.298;2022-12-11T06:04:28;6.70;;;1.87;;
6095;SDS011;25081;42.698;23.298;2022-12-11T06:06:38;2.90;;;1.90;;
6095;SDS011;25081;42.698;23.298;2022-12-11T06:08:49;2.70;;;1.40;;
6095;SDS011;25081;42.698;23.298;2022-12-11T06:11:00;6.23;;;1.77;;
6095;SDS011;25081;42.698;23.298;2022-12-11T06:13:10;2.83;;;1.60;;
6095;SDS011;25081;42.698;23.298;2022-12-11T06:15:20;10.40;;;5.50;;
6095;SDS011;25081;42.698;23.298;2022-12-11T06:17:32;7.30;;;3.47;;
6095;SDS011;25081;42.698;23.298;2022-12-11T06:19:42;4.77;;;2.60;;
6095;SDS011;25081;42.698;23.298;2022-12-11T06:21:53;3.93;;;1.60;;
6095;SDS011;25081;42.698;23.298;2022-12-11T06:24:04;4.35;;;2.05;;
6095;SDS011;25081;42.698;23.298;2022-12-11T06:26:15;3.80;;;2.00;;
6095;SDS011;25081;42.698;23.298;2022-12-11T06:28:26;2.20;;;1.83;;
6095;SDS011;25081;42.698;23.298;2022-12-11T06:30:37;2.60;;;1.77;;
6095;SDS011;25081;42.698;23.298;2022-12-11T06:32:47;4.03;;;1.77;;
6095;SDS011;25081;42.698;23.298;2022-12-11T06:34:58;2.60;;;1.97;;
6095;SDS011;25081;42.698;23.298;2022-12-11T06:37:08;5.20;;;1.70;;
6095;SDS011;25081;42.698;23.298;2022-12-11T06:39:19;3.20;;;1.77;;
6095;SDS011;25081;42.698;23.298;2022-12-11T06:41:29;4.33;;;1.90;;
6095;SDS011;25081;42.698;23.298;2022-12-11T06:43:40;5.20;;;2.03;;
6095;SDS011;25081;42.698;23.298;2022-12-11T06:45:50;9.23;;;2.37;;
6095;SDS011;25081;42.698;23.298;2022-12-11T06:48:01;4.20;;;2.50;;
6095;SDS011;25081;42.698;23.298;2022-12-11T06:50:11;12.07;;;2.53;;
6095;SDS011;25081;42.698;23.298;2022-12-11T06:52:23;4.67;;;2.70;;
6095;SDS011;25081;42.698;23.298;2022-12-11T06:54:33;6.33;;;2.93;;
6095;SDS011;25081;42.698;23.298;2022-12-11T06:56:43;5.80;;;1.93;;
6095;SDS011;25081;42.698;23.298;2022-12-11T06:58:54;2.40;;;1.67;;
6095;SDS011;25081;42.698;23.298;2022-12-11T07:01:11;5.40;;;2.00;;
6095;SDS011;25081;42.698;23.298;2022-12-11T07:03:21;4.87;;;1.67;;
6095;SDS011;25081;42.698;23.298;2022-12-11T07:05:32;3.70;;;1.50;;
6095;SDS011;25081;42.698;23.298;2022-12-11T07:07:42;4.47;;;2.13;;
6095;SDS011;25081;42.698;23.298;2022-12-11T07:09:52;3.80;;;2.00;;
6095;SDS011;25081;42.698;23.298;2022-12-11T07:12:04;4.60;;;1.90;;
6095;SDS011;25081;42.698;23.298;2022-12-11T07:14:14;4.03;;;2.07;;
6095;SDS011;25081;42.698;23.298;2022-12-11T07:16:25;5.17;;;2.20;;
6095;SDS011;25081;42.698;23.298;2022-12-11T07:18:36;7.23;;;3.27;;
6095;SDS011;25081;42.698;23.298;2022-12-11T07:20:46;4.77;;;2.50;;
6095;SDS011;25081;42.698;23.298;2022-12-11T07:22:57;5.77;;;2.60;;
6095;SDS011;25081;42.698;23.298;2022-12-11T07:25:08;3.47;;;1.70;;
6095;SDS011;25081;42.698;23.298;2022-12-11T07:27:18;3.10;;;1.87;;
6095;SDS011;25081;42.698;23.298;2022-12-11T07:29:29;5.93;;;2.50;;
6095;SDS011;25081;42.698;23.298;2022-12-11T07:31:39;4.93;;;2.37;;
6095;SDS011;25081;42.698;23.298;2022-12-11T07:33:52;4.37;;;3.07;;
6095;SDS011;25081;42.698;23.298;2022-12-11T07:36:03;4.87;;;3.27;;
6095;SDS011;25081;42.698;23.298;2022-12-11T07:38:14;4.13;;;2.83;;
6095;SDS011;25081;42.698;23.298;2022-12-11T07:40:25;8.27;;;3.63;;
6095;SDS011;25081;42.698;23.298;2022-12-11T07:42:35;7.13;;;3.20;;
6095;SDS011;25081;42.698;23.298;2022-12-11T07:44:46;6.20;;;2.47;;
6095;SDS011;25081;42.698;23.298;2022-12-11T07:46:56;19.80;;;10.57;;
6095;SDS011;25081;42.698;23.298;2022-12-11T07:49:06;7.07;;;4.00;;
6095;SDS011;25081;42.698;23.298;2022-12-11T07:51:18;7.37;;;3.13;;
6095;SDS011;25081;42.698;23.298;2022-12-11T07:53:27;3.47;;;1.83;;
6095;SDS011;25081;42.698;23.298;2022-12-11T07:55:38;6.27;;;3.57;;
6095;SDS011;25081;42.698;23.298;2022-12-11T07:57:48;10.30;;;2.67;;
6095;SDS011;25081;42.698;23.298;2022-12-11T07:59:58;7.03;;;2.30;;
6095;SDS011;25081;42.698;23.298;2022-12-11T08:02:09;10.87;;;3.90;;
6095;SDS011;25081;42.698;23.298;2022-12-11T08:04:20;2.70;;;1.90;;
6095;SDS011;25081;42.698;23.298;2022-12-11T08:06:31;6.87;;;2.43;;
6095;SDS011;25081;42.698;23.298;2022-12-11T08:08:41;7.13;;;2.10;;
6095;SDS011;25081;42.698;23.298;2022-12-11T08:10:51;4.47;;;2.77;;
6095;SDS011;25081;42.698;23.298;2022-12-11T08:13:01;6.33;;;2.27;;
6095;SDS011;25081;42.698;23.298;2022-12-11T08:15:12;6.77;;;2.53;;
6095;SDS011;25081;42.698;23.298;2022-12-11T08:17:22;5.77;;;2.00;;
6095;SDS011;25081;42.698;23.298;2022-12-11T08:19:33;3.23;;;2.00;;
6095;SDS011;25081;42.698;23.298;2022-12-11T08:21:43;6.50;;;1.70;;
6095;SDS011;25081;42.698;23.298;2022-12-11T08:23:54;4.90;;;2.27;;
6095;SDS011;25081;42.698;23.298;2022-12-11T08:26:06;4.63;;;2.20;;
6095;SDS011;25081;42.698;23.298;2022-12-11T08:28:16;5.00;;;2.50;;
6095;SDS011;25081;42.698;23.298;2022-12-11T08:30:26;9.30;;;4.17;;
6095;SDS011;25081;42.698;23.298;2022-12-11T08:32:37;4.23;;;2.20;;
6095;SDS011;25081;42.698;23.298;2022-12-11T08:34:47;2.97;;;1.73;;
6095;SDS011;25081;42.698;23.298;2022-12-11T08:36:59;3.27;;;1.50;;
6095;SDS011;25081;42.698;23.298;2022-12-11T08:39:10;2.67;;;1.37;;
6095;SDS011;25081;42.698;23.298;2022-12-11T08:41:21;2.83;;;1.37;;
6095;SDS011;25081;42.698;23.298;2022-12-11T08:43:32;4.90;;;1.93;;
6095;SDS011;25081;42.698;23.298;2022-12-11T08:45:42;2.70;;;1.40;;
6095;SDS011;25081;42.698;23.298;2022-12-11T08:47:52;5.93;;;2.03;;
6095;SDS011;25081;42.698;23.298;2022-12-11T08:50:04;3.17;;;2.13;;
6095;SDS011;25081;42.698;23.298;2022-12-11T08:52:15;6.00;;;2.47;;
6095;SDS011;25081;42.698;23.298;2022-12-11T08:54:25;5.80;;;2.70;;
6095;SDS011;25081;42.698;23.298;2022-12-11T08:56:36;12.07;;;7.40;;
6095;SDS011;25081;42.698;23.298;2022-12-11T08:58:46;17.63;;;5.73;;
6095;SDS011;25081;42.698;23.298;2022-12-11T09:00:56;7.50;;;3.20;;
6095;SDS011;25081;42.698;23.298;2022-12-11T09:03:07;4.40;;;2.90;;
6095;SDS011;25081;42.698;23.298;2022-12-11T09:05:18;6.33;;;3.20;;
6095;SDS011;25081;42.698;23.298;2022-12-11T09:07:28;5.40;;;2.70;;
6095;SDS011;25081;42.698;23.298;2022-12-11T09:09:38;5.57;;;2.70;;
6095;SDS011;25081;42.698;23.298;2022-12-11T09:11:49;6.00;;;3.20;;
6095;SDS011;25081;42.698;23.298;2022-12-11T09:14:00;7.10;;;2.80;;
6095;SDS011;25081;42.698;23.298;2022-12-11T09:16:11;5.60;;;2.30;;
6095;SDS011;25081;42.698;23.298;2022-12-11T09:18:20;4.37;;;2.10;;
6095;SDS011;25081;42.698;23.298;2022-12-11T09:20:31;2.57;;;1.67;;
6095;SDS011;25081;42.698;23.298;2022-12-11T09:22:41;4.00;;;1.80;;
6095;SDS011;25081;42.698;23.298;2022-12-11T09:24:52;3.03;;;1.87;;
6095;SDS011;25081;42.698;23.298;2022-12-11T09:27:03;4.77;;;1.70;;
6095;SDS011;25081;42.698;23.298;2022-12-11T09:29:13;5.07;;;2.10;;
6095;SDS011;25081;42.698;23.298;2022-12-11T09:31:24;4.33;;;2.13;;
6095;SDS011;25081;42.698;23.298;2022-12-11T09:33:34;3.20;;;2.43;;
6095;SDS011;25081;42.698;23.298;2022-12-11T09:35:44;4.13;;;2.37;;
6095;SDS011;25081;42.698;23.298;2022-12-11T09:37:55;6.50;;;2.63;;
6095;SDS011;25081;42.698;23.298;2022-12-11T09:40:07;6.80;;;3.23;;
6095;SDS011;25081;42.698;23.298;2022-12-11T09:42:20;4.90;;;1.70;;
6095;SDS011;25081;42.698;23.298;2022-12-11T09:44:34;7.13;;;2.27;;
6095;SDS011;25081;42.698;23.298;2022-12-11T09:46:47;4.87;;;1.90;;
6095;SDS011;25081;42.698;23.298;2022-12-11T09:48:57;4.60;;;2.13;;
6095;SDS011;25081;42.698;23.298;2022-12-11T09:51:11;5.67;;;3.57;;
6095;SDS011;25081;42.698;23.298;2022-12-11T09:53:22;4.43;;;1.73;;
6095;SDS011;25081;42.698;23.298;2022-12-11T09:55:34;6.80;;;2.20;;
6095;SDS011;25081;42.698;23.298;2022-12-11T09:57:47;4.77;;;1.97;;
6095;SDS011;25081;42.698;23.298;2022-12-11T10:00:01;4.60;;;2.47;;
6095;SDS011;25081;42.698;23.298;2022-12-11T10:02:18;4.13;;;2.23;;
6095;SDS011;25081;42.698;23.298;2022-12-11T10:04:33;4.47;;;2.13;;
6095;SDS011;25081;42.698;23.298;2022-12-11T10:06:47;3.37;;;1.80;;
6095;SDS011;25081;42.698;23.298;2022-12-11T10:08:59;4.63;;;1.97;;
6095;SDS011;25081;42.698;23.298;2022-12-11T10:11:18;3.30;;;2.23;;
6095;SDS011;25081;42.698;23.298;2022-12-11T10:13:33;4.70;;;2.10;;
6095;SDS011;25081;42.698;23.298;2022-12-11T10:15:43;2.90;;;1.97;;
6095;SDS011;25081;42.698;23.298;2022-12-11T10:17:53;4.30;;;2.07;;
6095;SDS011;25081;42.698;23.298;2022-12-11T10:20:13;3.17;;;1.70;;
6095;SDS011;25081;42.698;23.298;2022-12-11T10:22:19;4.20;;;1.97;;
6095;SDS011;25081;42.698;23.298;2022-12-11T10:24:31;3.50;;;1.97;;
6095;SDS011;25081;42.698;23.298;2022-12-11T10:26:41;3.00;;;1.87;;
6095;SDS011;25081;42.698;23.298;2022-12-11T10:28:51;10.40;;;2.17;;
6095;SDS011;25081;42.698;23.298;2022-12-11T10:31:03;3.97;;;1.73;;
6095;SDS011;25081;42.698;23.298;2022-12-11T10:33:16;2.87;;;1.90;;
6095;SDS011;25081;42.698;23.298;2022-12-11T10:35:28;4.00;;;1.90;;
6095;SDS011;25081;42.698;23.298;2022-12-11T10:37:39;2.63;;;1.90;;
6095;SDS011;25081;42.698;23.298;2022-12-11T10:39:49;3.20;;;2.23;;
6095;SDS011;25081;42.698;23.298;2022-12-11T10:42:00;7.40;;;2.03;;
6095;SDS011;25081;42.698;23.298;2022-12-11T10:44:15;2.67;;;1.80;;
6095;SDS011;25081;42.698;23.298;2022-12-11T10:46:26;5.33;;;2.80;;
6095;SDS011;25081;42.698;23.298;2022-12-11T10:48:35;3.73;;;2.43;;
6095;SDS011;25081;42.698;23.298;2022-12-11T10:50:57;4.87;;;2.17;;
6095;SDS011;25081;42.698;23.298;2022-12-11T10:53:16;6.00;;;2.70;;
6095;SDS011;25081;42.698;23.298;2022-12-11T10:55:29;4.17;;;2.53;;
6095;SDS011;25081;42.698;23.298;2022-12-11T10:57:39;4.70;;;2.00;;
6095;SDS011;25081;42.698;23.298;2022-12-11T10:59:50;6.63;;;2.63;;
6095;SDS011;25081;42.698;23.298;2022-12-11T11:02:00;6.30;;;4.30;;
6095;SDS011;25081;42.698;23.298;2022-12-11T11:04:14;7.93;;;3.83;;
6095;SDS011;25081;42.698;23.298;2022-12-11T11:06:24;3.70;;;2.90;;
6095;SDS011;25081;42.698;23.298;2022-12-11T11:08:38;6.57;;;2.40;;
6095;SDS011;25081;42.698;23.298;2022-12-11T11:10:53;3.47;;;2.20;;
6095;SDS011;25081;42.698;23.298;2022-12-11T11:13:02;3.40;;;2.27;;
6095;SDS011;25081;42.698;23.298;2022-12-11T11:15:14;6.80;;;2.50;;
6095;SDS011;25081;42.698;23.298;2022-12-11T11:17:24;6.00;;;2.77;;
6095;SDS011;25081;42.698;23.298;2022-12-11T11:19:35;4.53;;;2.30;;
6095;SDS011;25081;42.698;23.298;2022-12-11T11:21:47;5.97;;;2.83;;
6095;SDS011;25081;42.698;23.298;2022-12-11T11:23:58;4.50;;;2.40;;
6095;SDS011;25081;42.698;23.298;2022-12-11T11:26:08;4.80;;;2.70;;
6095;SDS011;25081;42.698;23.298;2022-12-11T11:28:20;3.67;;;2.70;;
6095;SDS011;25081;42.698;23.298;2022-12-11T11:30:31;4.80;;;3.50;;
6095;SDS011;25081;42.698;23.298;2022-12-11T11:32:41;5.37;;;3.70;;
6095;SDS011;25081;42.698;23.298;2022-12-11T11:34:51;4.90;;;3.47;;
6095;SDS011;25081;42.698;23.298;2022-12-11T11:37:01;3.37;;;2.33;;
6095;SDS011;25081;42.698;23.298;2022-12-11T11:39:15;3.57;;;2.23;;
6095;SDS011;25081;42.698;23.298;2022-12-11T11:41:27;19.73;;;16.93;;
6095;SDS011;25081;42.698;23.298;2022-12-11T11:43:39;5.97;;;2.37;;
6095;SDS011;25081;42.698;23.298;2022-12-11T11:45:50;4.97;;;2.17;;
6095;SDS011;25081;42.698;23.298;2022-12-11T11:48:02;4.20;;;2.60;;
6095;SDS011;25081;42.698;23.298;2022-12-11T11:50:13;8.07;;;2.20;;
6095;SDS011;25081;42.698;23.298;2022-12-11T11:52:24;10.60;;;2.63;;
6095;SDS011;25081;42.698;23.298;2022-12-11T11:54:35;6.63;;;2.77;;
6095;SDS011;25081;42.698;23.298;2022-12-11T11:56:45;3.37;;;2.50;;
6095;SDS011;25081;42.698;23.298;2022-12-11T11:59:06;7.27;;;4.07;;
6095;SDS011;25081;42.698;23.298;2022-12-11T12:01:16;4.87;;;2.97;;
6095;SDS011;25081;42.698;23.298;2022-12-11T12:03:26;7.50;;;3.57;;
6095;SDS011;25081;42.698;23.298;2022-12-11T12:05:38;4.83;;;2.80;;
6095;SDS011;25081;42.698;23.298;2022-12-11T12:07:51;8.50;;;3.87;;
6095;SDS011;25081;42.698;23.298;2022-12-11T12:10:01;10.83;;;4.07;;
6095;SDS011;25081;42.698;23.298;2022-12-11T12:12:13;5.00;;;3.43;;
6095;SDS011;25081;42.698;23.298;2022-12-11T12:14:26;7.40;;;3.20;;
6095;SDS011;25081;42.698;23.298;2022-12-11T12:16:37;5.27;;;3.20;;
6095;SDS011;25081;42.698;23.298;2022-12-11T12:18:48;5.10;;;2.60;;
6095;SDS011;25081;42.698;23.298;2022-12-11T12:20:59;3.37;;;2.17;;
6095;SDS011;25081;42.698;23.298;2022-12-11T12:23:22;4.50;;;2.60;;
6095;SDS011;25081;42.698;23.298;2022-12-11T12:25:35;7.53;;;3.40;;
6095;SDS011;25081;42.698;23.298;2022-12-11T12:27:49;7.77;;;4.43;;
6095;SDS011;25081;42.698;23.298;2022-12-11T12:29:58;4.83;;;3.67;;
6095;SDS011;25081;42.698;23.298;2022-12-11T12:32:08;3.90;;;2.87;;
6095;SDS011;25081;42.698;23.298;2022-12-11T12:34:21;4.80;;;3.30;;
6095;SDS011;25081;42.698;23.298;2022-12-11T12:36:33;5.20;;;2.80;;
6095;SDS011;25081;42.698;23.298;2022-12-11T12:38:45;3.57;;;2.63;;
6095;SDS011;25081;42.698;23.298;2022-12-11T12:40:58;3.23;;;2.23;;
6095;SDS011;25081;42.698;23.298;2022-12-11T12:43:16;6.77;;;2.90;;
6095;SDS011;25081;42.698;23.298;2022-12-11T12:45:26;3.80;;;2.87;;
6095;SDS011;25081;42.698;23.298;2022-12-11T12:47:36;5.17;;;2.80;;
6095;SDS011;25081;42.698;23.298;2022-12-11T12:49:47;3.60;;;2.30;;
6095;SDS011;25081;42.698;23.298;2022-12-11T12:51:57;3.40;;;2.40;;
6095;SDS011;25081;42.698;23.298;2022-12-11T12:54:08;3.75;;;2.42;;
6095;SDS011;25081;42.698;23.298;2022-12-11T12:56:18;2.62;;;2.30;;
6095;SDS011;25081;42.698;23.298;2022-12-11T12:58:30;5.90;;;3.37;;
6095;SDS011;25081;42.698;23.298;2022-12-11T13:00:40;5.08;;;2.90;;
6095;SDS011;25081;42.698;23.298;2022-12-11T13:02:50;3.25;;;2.25;;
6095;SDS011;25081;42.698;23.298;2022-12-11T13:05:02;4.30;;;2.00;;
6095;SDS011;25081;42.698;23.298;2022-12-11T13:07:16;5.00;;;3.20;;